Hovedside
METAR-TAF:

METAR-TAF

Lufthavner :

Tabuk, Saudi-Arabia

breddegrad: 28-22N, lengdegrad: 036-36E, høyde over havet: 778 m

Gjeldene værobservasjon

Denne rapporten ble laget for 58 minutter siden, klokken 19:00 UTC
Vind 5 kt fra Sør-sørøst
Temperatur 17°C
Luftfuktighet 29%
Trykk 1021 hPa
Sikt 10 km eller mer
ingen skyer under 1500 m og ingen bygeskyer

METAR: OETB 281900Z 16005KT CAVOK 17/M01 Q1021 NOSIG

Tid: 22:58 (19:58 UTC)

Varsel

Denne rapporten ble laget for 8 timer og 58 minutter siden, klokken 11:00 UTC
Varsel gyldig fra 28. klokken 12 UTC til 29. klokken 18 UTC
Vind 6 kt fra Øst
Sikt 10 km eller mer
ingen skyer under 1500 m og ingen bygeskyer
Blir
fra 28. klokken 18 UTC til 28. klokken 20 UTC
Vind 3 kt fra skiftende retning

TAF: OETB 281100Z 2812/2918 09006KT CAVOK BECMG 2818/2820 VRB03KT

Værobservasjoner og værvarsel for over 4000 flyplasser (METAR- og TAF-rapporter).

Tilgjengelige stasjoner er representert av de røde og gule prikkene på kartet.

Hold musepekeren over prikken for å se navnet på stasjonen.

Klikk så for å se værobservasjoner og -varsler.

For å forandre kartet kan du klikke på den grønne knappen med svart kryss for å zoome inn, på den grønne knappen med strek for å zoome ut, eller på de grønne pilene for å se tilstøtende kart.


METAR-TAF: